createdAt,value
2022-11-09T00:03:36.145Z,5.03
2022-11-09T00:08:41.705Z,2.50
2022-11-09T00:13:45.808Z,2.97
2022-11-09T00:18:48.699Z,3.55
2022-11-09T00:23:53.825Z,2.97
2022-11-09T00:28:56.682Z,1.90
2022-11-09T00:33:59.536Z,1.40
2022-11-09T00:39:03.719Z,3.13
2022-11-09T00:44:08.832Z,2.25
2022-11-09T00:49:11.763Z,5.75
2022-11-09T00:54:17.559Z,2.13
2022-11-09T00:59:20.430Z,1.75
2022-11-09T01:04:24.002Z,3.80
2022-11-09T01:09:30.285Z,3.20
2022-11-09T01:14:33.167Z,3.33
2022-11-09T01:19:38.822Z,2.97
2022-11-09T01:24:43.116Z,3.33
2022-11-09T01:29:45.876Z,1.55
2022-11-09T01:34:48.635Z,2.80
2022-11-09T01:39:52.726Z,3.47
2022-11-09T01:45:26.071Z,2.38
2022-11-09T01:50:36.128Z,1.77
2022-11-09T01:55:40.780Z,1.92
2022-11-09T02:00:48.460Z,1.35
2022-11-09T02:05:52.544Z,1.65
2022-11-09T02:11:05.610Z,3.25
2022-11-09T02:16:10.724Z,3.45
2022-11-09T02:21:15.119Z,3.10
2022-11-09T02:26:22.825Z,1.92
2022-11-09T02:31:32.184Z,1.38
2022-11-09T02:36:36.432Z,2.47
2022-11-09T02:41:45.770Z,3.53
2022-11-09T02:46:48.671Z,1.83
2022-11-09T02:51:52.966Z,1.40
2022-11-09T02:56:56.184Z,2.15
2022-11-09T03:01:59.098Z,1.20
2022-11-09T03:07:06.051Z,1.67
2022-11-09T03:12:23.167Z,2.65
2022-11-09T03:17:28.142Z,0.82
2022-11-09T03:22:32.335Z,1.58
2022-11-09T03:27:35.253Z,1.75
2022-11-09T03:32:38.832Z,1.20
2022-11-09T03:37:44.195Z,1.65
2022-11-09T03:42:48.143Z,1.63
2022-11-09T03:47:51.113Z,0.85
2022-11-09T03:52:55.278Z,2.30
2022-11-09T03:57:58.094Z,2.33
2022-11-09T04:03:01.035Z,1.35
2022-11-09T04:08:05.767Z,5.68
2022-11-09T04:13:09.008Z,1.88
2022-11-09T04:18:15.188Z,1.13
2022-11-09T04:23:20.330Z,2.35
2022-11-09T04:28:23.537Z,1.67
2022-11-09T04:33:26.344Z,1.85
2022-11-09T04:38:30.499Z,2.47
2022-11-09T04:43:33.337Z,3.78
2022-11-09T04:48:36.202Z,2.45
2022-11-09T04:53:40.552Z,1.42
2022-11-09T04:58:43.430Z,1.73
2022-11-09T05:03:46.275Z,4.47
2022-11-09T05:08:50.700Z,2.65
2022-11-09T05:13:53.975Z,2.42
2022-11-09T05:18:56.985Z,2.22
2022-11-09T05:24:01.475Z,2.88
2022-11-09T05:29:06.238Z,4.47
2022-11-09T05:34:13.374Z,2.53
2022-11-09T05:39:17.582Z,5.45
2022-11-09T05:44:20.364Z,2.65
2022-11-09T05:49:23.147Z,4.28
2022-11-09T05:54:27.313Z,3.88
2022-11-09T05:59:30.099Z,4.13
2022-11-09T06:04:32.877Z,2.78
2022-11-09T06:09:37.196Z,5.47
2022-11-09T06:14:40.008Z,2.70
2022-11-09T06:19:42.784Z,3.92
2022-11-09T06:24:46.965Z,5.53
2022-11-09T06:29:49.785Z,4.05
2022-11-09T06:34:52.608Z,2.65
2022-11-09T06:39:56.748Z,1.98
2022-11-09T06:44:59.527Z,3.55
2022-11-09T06:50:02.344Z,3.80
2022-11-09T06:55:08.250Z,1.80
2022-11-09T07:00:12.528Z,2.70
2022-11-09T07:05:15.492Z,3.67
2022-11-09T07:10:20.070Z,1.27
2022-11-09T07:15:22.860Z,4.18
2022-11-09T07:20:26.147Z,3.92
2022-11-09T07:25:30.273Z,3.67
2022-11-09T07:30:33.125Z,1.40
2022-11-09T07:35:35.964Z,2.95
2022-11-09T07:40:40.760Z,5.18
2022-11-09T07:45:43.671Z,5.65
2022-11-09T07:50:46.609Z,2.13
2022-11-09T07:55:58.592Z,2.17
2022-11-09T08:01:01.391Z,6.03
2022-11-09T08:06:04.529Z,2.85
2022-11-09T08:11:08.783Z,3.10
2022-11-09T08:16:11.667Z,4.88
2022-11-09T08:21:14.451Z,3.42
2022-11-09T08:26:18.661Z,5.03
2022-11-09T08:31:21.435Z,5.07
2022-11-09T08:36:26.093Z,7.15
2022-11-09T08:41:30.288Z,3.67
2022-11-09T08:46:37.008Z,4.60
2022-11-09T08:51:42.794Z,4.25
2022-11-09T08:56:46.964Z,4.60
2022-11-09T09:01:49.902Z,4.38
2022-11-09T09:06:54.101Z,4.18
2022-11-09T09:11:58.372Z,11.60
2022-11-09T09:17:01.588Z,12.13
2022-11-09T09:22:04.751Z,6.70
2022-11-09T09:27:09.004Z,12.10
2022-11-09T09:32:11.845Z,6.25
2022-11-09T09:37:14.785Z,11.93
2022-11-09T09:42:23.850Z,6.47
2022-11-09T09:47:34.428Z,4.53
2022-11-09T09:52:43.263Z,4.20
2022-11-09T09:57:56.144Z,3.05
2022-11-09T10:02:59.036Z,4.05
2022-11-09T10:08:10.210Z,1.98
2022-11-09T10:13:41.892Z,4.88
2022-11-09T10:19:09.559Z,5.78
2022-11-09T10:24:26.113Z,3.33
2022-11-09T10:29:36.642Z,6.35
2022-11-09T10:34:45.080Z,0.98
2022-11-09T10:39:52.525Z,3.17
2022-11-09T10:45:22.947Z,3.88
2022-11-09T10:50:51.807Z,4.68
2022-11-09T10:56:20.889Z,4.45
2022-11-09T11:01:44.005Z,4.20
2022-11-09T11:07:20.486Z,2.88
2022-11-09T11:12:42.736Z,4.25
2022-11-09T11:18:13.844Z,7.30
2022-11-09T11:23:36.951Z,2.20
2022-11-09T11:29:02.719Z,1.58
2022-11-09T11:34:53.470Z,4.88
2022-11-09T11:45:40.989Z,2.60
2022-11-09T11:51:10.387Z,1.93
2022-11-09T11:56:37.410Z,2.05
2022-11-09T12:02:26.070Z,1.45
2022-11-09T12:07:57.590Z,5.38
2022-11-09T12:13:39.724Z,2.55
2022-11-09T12:19:22.578Z,1.90
2022-11-09T12:24:57.315Z,3.58
2022-11-09T12:30:21.393Z,4.80
2022-11-09T12:35:47.588Z,2.60
2022-11-09T12:41:16.982Z,2.78
2022-11-09T12:46:44.230Z,3.33
2022-11-09T12:52:07.807Z,1.60
2022-11-09T12:57:33.247Z,2.10
2022-11-09T13:02:57.455Z,4.10
2022-11-09T13:08:24.675Z,2.95
2022-11-09T13:13:48.113Z,4.30
2022-11-09T13:19:09.911Z,2.72
2022-11-09T13:24:56.151Z,1.92
2022-11-09T13:30:43.060Z,3.45
2022-11-09T13:36:22.324Z,1.05
2022-11-09T13:41:44.849Z,5.28
2022-11-09T13:47:22.924Z,1.58
2022-11-09T13:52:50.749Z,4.10
2022-11-09T13:58:23.411Z,3.55
2022-11-09T14:03:51.745Z,5.13
2022-11-09T14:09:19.901Z,2.78
2022-11-09T14:14:59.599Z,4.60
2022-11-09T14:20:32.275Z,4.22
2022-11-09T14:25:53.717Z,5.72
2022-11-09T14:31:24.598Z,4.72
2022-11-09T14:36:47.452Z,4.07
2022-11-09T14:42:13.701Z,5.65
2022-11-09T14:47:38.873Z,3.20
2022-11-09T14:53:02.694Z,4.50
2022-11-09T14:58:25.140Z,9.68
2022-11-09T15:03:47.813Z,6.93
2022-11-09T15:09:15.856Z,2.55
2022-11-09T15:14:37.380Z,4.38
2022-11-09T15:20:00.164Z,5.95
2022-11-09T15:25:27.475Z,3.33
2022-11-09T15:31:05.807Z,3.85
2022-11-09T15:36:31.535Z,2.83
2022-11-09T15:41:54.129Z,2.47
2022-11-09T15:47:22.945Z,3.22
2022-11-09T15:52:44.495Z,4.50
2022-11-09T15:58:07.555Z,4.07
2022-11-09T16:03:28.945Z,3.20
2022-11-09T16:08:50.988Z,6.90
2022-11-09T16:14:14.899Z,3.75
2022-11-09T16:19:36.679Z,8.02
2022-11-09T16:24:58.202Z,4.07
2022-11-09T16:30:21.741Z,3.28
2022-11-09T16:35:43.303Z,3.15
2022-11-09T16:41:05.441Z,2.83
2022-11-09T16:46:30.271Z,4.05
2022-11-09T16:51:51.927Z,1.95
2022-11-09T16:57:13.279Z,5.25
2022-11-09T17:02:36.684Z,8.88
2022-11-09T17:07:59.151Z,7.03
2022-11-09T17:13:20.672Z,7.80
2022-11-09T17:18:43.759Z,7.88
2022-11-09T17:29:28.003Z,8.32
2022-11-09T17:34:50.945Z,8.30
2022-11-09T17:40:12.641Z,5.32
2022-11-09T17:45:36.468Z,6.60
2022-11-09T17:51:00.308Z,4.32
2022-11-09T17:56:21.757Z,6.03
2022-11-09T18:01:43.862Z,5.28
2022-11-09T18:07:06.633Z,6.88
2022-11-09T18:12:27.847Z,5.22
2022-11-09T18:17:49.597Z,6.40
2022-11-09T18:23:12.593Z,6.40
2022-11-09T18:28:34.328Z,12.57
2022-11-09T18:33:55.797Z,6.73
2022-11-09T18:39:18.569Z,7.10
2022-11-09T18:50:01.094Z,6.00
2022-11-09T18:55:23.870Z,2.70
2022-11-09T19:00:45.654Z,2.38
2022-11-09T19:06:08.442Z,8.20
2022-11-09T19:11:31.227Z,4.90
2022-11-09T19:22:18.197Z,11.65
2022-11-09T19:27:41.357Z,6.13
2022-11-09T19:33:03.396Z,5.95
2022-11-09T19:38:24.533Z,8.00
2022-11-09T19:43:49.902Z,7.88
2022-11-09T19:49:11.504Z,8.90
2022-11-09T19:54:32.649Z,6.63
2022-11-09T19:59:55.607Z,5.72
2022-11-09T20:05:16.840Z,3.95
2022-11-09T20:10:38.386Z,5.53
2022-11-09T20:16:04.956Z,6.65
2022-11-09T20:21:26.169Z,9.07
2022-11-09T20:26:47.706Z,8.50
2022-11-09T20:32:15.660Z,6.95
2022-11-09T20:37:39.712Z,8.10
2022-11-09T20:43:00.971Z,4.10
2022-11-09T20:48:52.219Z,6.15
2022-11-09T20:54:07.772Z,5.80
2022-11-09T20:59:29.445Z,6.28
2022-11-09T21:04:52.090Z,6.25
2022-11-09T21:10:13.624Z,13.35
2022-11-09T21:15:35.087Z,6.88
2022-11-09T21:20:57.995Z,7.20
2022-11-09T21:31:58.477Z,4.97
2022-11-09T21:37:21.141Z,15.85
2022-11-09T21:42:42.405Z,8.32
2022-11-09T21:48:03.703Z,15.75
2022-11-09T21:53:27.715Z,9.48
2022-11-09T21:58:50.034Z,6.75
2022-11-09T22:04:11.514Z,8.67
2022-11-09T22:09:57.823Z,12.70
2022-11-09T22:15:34.155Z,9.60
2022-11-09T22:20:57.250Z,8.30
2022-11-09T22:31:41.347Z,6.53
2022-11-09T22:37:02.547Z,10.25
2022-11-09T22:42:25.365Z,7.38
2022-11-09T22:47:46.825Z,9.48
2022-11-09T22:53:07.977Z,7.40
2022-11-09T22:58:30.984Z,11.30
2022-11-09T23:09:14.161Z,8.50
2022-11-09T23:14:54.086Z,6.68
2022-11-09T23:20:15.847Z,10.38
2022-11-09T23:25:57.011Z,11.83
2022-11-09T23:31:24.111Z,7.95
2022-11-09T23:36:45.773Z,11.32
2022-11-09T23:42:07.013Z,8.95
2022-11-09T23:47:29.520Z,14.75
2022-11-09T23:52:50.616Z,10.30
2022-11-09T23:58:13.035Z,7.05
